Back to top

Riverton, WY weather

Riverton Regional Airport, Riverton, WY: 7/04/2020 01:53
Visibility10 statute milesclear sky
View 7-Day Forecast
Area Summary
Sky/CloudsSky Clear
Weather [last 24 hours]None
Pressure30.16 in.Hg (1021 hPa)
Dew Point44.1 °F (6.7 °C)
Relative Humidity40.5 %
Temperature69.1 °F (20.6 °C)red thermometer
Reading TimeMinimum to Maximum Temperature
6-hr ending 7/3@23:5368 °F to 91.9 °F (20 °C to 33.3 °C)
6-hr ending 7/3@17:5379 °F to 93 °F (26.1 °C to 33.9 °C)
6-hr ending 7/3@11:5357.9 °F to 79 °F (14.4 °C to 26.1 °C)
6-hr ending 7/3@05:5357 °F to 64 °F (13.9 °C to 17.8 °C)
24-hr ending 7/4@00:5357 °F to 93 °F (13.9 °C to 33.9 °C)
Wind10.4 MPH (9 KT) green arrow pointing 45 degrees
Wind FromNortheast (040 Degrees)
Rolling 24-hr Peak Wind33.4 MPH (29 KT) on 7/3@17:07
Rolling 24-hr Peak Wind FromSouthwest (230 Degrees)
Twilight Begins05:05Sunshine Yesterday
Sunrise05:40N/A
Sunset20:58
Twilight Ends21:33
METARKRIW 040753Z AUTO 04009KT 10SM CLR 21/07 A3016 RMK AO2 SLP133 T02060067
Tags: